Startpagina
METAR-TAF:

METAR-TAF

Vliegvelden :

Internationale Luchthaven Baghdad

Bagdad, Irak

breedte: 33-15-45N, lengte: 44-14-04E, hoogte: 35 m

Actueel weer

Dit bericht is 24 minuten geleden gemaakt, om 13:00 UTC
Wind 4 kt uit het westen, variërend tussen het westzuidwesten en het noordnoordwesten
Temperatuur 42°C
Vochtigheid 18%
Druk 1004 hPa
Zicht: 9000 m

METAR: ORBI 191300Z 28004KT 240V340 9000 NSC 42/13 Q1004 NOSIG

Tijdstip: 16:24 (13:24 UTC)

Verwachting

Dit bericht is 3 uur en het 24 minuten geleden gemaakt, om 10:00 UTC
Verwachting geldig van 19 om 12 UTC tot 20 om 12 UTC
Wind 5 kt uit het westen
Zicht: 8000 m
Wijzigt naar
van 19 om 18 UTC tot 19 om 20 UTC
Wind 5 kt uit het westnoordwesten

TAF: ORBI 191000Z 1912/2012 26005KT 8000 NSC BECMG 1918/1920 30005KT

Waarnemingen en weersverwachtingen van meer dan 4000 vliegvelden (METAR en TAF).

De beschikbare stations zijn de gele en rode punten op de kaart.

Ga met uw muis naar het station om de naam te zien.

Klik dan om waarnemingen en weersverwachtingen te zien.

kaart wijzigen: klik op de groene knoppen met een zwart kruis om in te zoomen, op de groene knop met een streepje om uit te zoomen of op de groene pijlen voor aangrenzende kaarten.


METAR-TAF: